Corte Madera, California
Current Conditions -  °F | °C
As of 12:55 AM on Saturday 25 Oct 2014 (Local Time) from KDVO Reporting Station
Overcast Overcast  
Wind Chill: 64°   Ceiling: 3400
Heat Index: 64°   Visibility: 10mi
Dew Point: 55°   Wind: 6mph
Humidity: 73%   Direction: 150°SSE
Pressure: 29.91"   Gusts: NA
Location:  37.93°N, 122.52°W
Report Text: KDVO 250755Z AUTO 15005KT 10SM BKN034 OVC047 18/13 A2991 RMK AO2
Loading
Personal Weather Stations






























Interactive Weather Map
Tropical Storm Tracking
New forecast layout! Learn more

10-Day Weather Forecast

Advertisements
Track Severe Weather on mobile